sensor_id;sensor_type;location;lat;lon;timestamp;P1;durP1;ratioP1;P2;durP2;ratioP2
62435;SDS011;48480;50.252;18.848;2022-09-30T00:01:30;24.80;;;15.90;;
62435;SDS011;48480;50.252;18.848;2022-09-30T00:04:16;21.10;;;16.30;;
62435;SDS011;48480;50.252;18.848;2022-09-30T00:07:02;23.80;;;16.30;;
62435;SDS011;48480;50.252;18.848;2022-09-30T00:09:46;21.90;;;15.80;;
62435;SDS011;48480;50.252;18.848;2022-09-30T00:12:31;19.70;;;14.50;;
62435;SDS011;48480;50.252;18.848;2022-09-30T00:15:15;20.20;;;15.20;;
62435;SDS011;48480;50.252;18.848;2022-09-30T00:18:00;22.90;;;16.20;;
62435;SDS011;48480;50.252;18.848;2022-09-30T00:20:44;24.20;;;15.70;;
62435;SDS011;48480;50.252;18.848;2022-09-30T00:23:28;26.20;;;14.40;;
62435;SDS011;48480;50.252;18.848;2022-09-30T00:26:17;21.60;;;14.20;;
62435;SDS011;48480;50.252;18.848;2022-09-30T00:29:02;19.40;;;13.00;;
62435;SDS011;48480;50.252;18.848;2022-09-30T00:31:46;19.00;;;14.80;;
62435;SDS011;48480;50.252;18.848;2022-09-30T00:34:30;19.40;;;14.50;;
62435;SDS011;48480;50.252;18.848;2022-09-30T00:37:14;17.90;;;13.90;;
62435;SDS011;48480;50.252;18.848;2022-09-30T00:39:59;20.10;;;14.30;;
62435;SDS011;48480;50.252;18.848;2022-09-30T00:42:43;18.20;;;15.40;;
62435;SDS011;48480;50.252;18.848;2022-09-30T00:45:29;23.80;;;16.20;;
62435;SDS011;48480;50.252;18.848;2022-09-30T00:48:25;19.90;;;13.40;;
62435;SDS011;48480;50.252;18.848;2022-09-30T00:51:15;20.80;;;14.60;;
62435;SDS011;48480;50.252;18.848;2022-09-30T00:54:02;21.30;;;16.30;;
62435;SDS011;48480;50.252;18.848;2022-09-30T00:56:54;19.40;;;12.90;;
62435;SDS011;48480;50.252;18.848;2022-09-30T00:59:45;19.60;;;15.10;;
62435;SDS011;48480;50.252;18.848;2022-09-30T01:02:33;20.60;;;14.90;;
62435;SDS011;48480;50.252;18.848;2022-09-30T01:05:24;20.10;;;13.60;;
62435;SDS011;48480;50.252;18.848;2022-09-30T01:08:10;17.70;;;12.00;;
62435;SDS011;48480;50.252;18.848;2022-09-30T01:10:55;21.00;;;13.50;;
62435;SDS011;48480;50.252;18.848;2022-09-30T01:13:40;19.00;;;11.70;;
62435;SDS011;48480;50.252;18.848;2022-09-30T01:35:32;18.10;;;11.50;;
62435;SDS011;48480;50.252;18.848;2022-09-30T01:38:47;16.10;;;11.30;;
62435;SDS011;48480;50.252;18.848;2022-09-30T01:41:49;15.80;;;11.10;;
62435;SDS011;48480;50.252;18.848;2022-09-30T01:44:50;16.70;;;12.60;;
62435;SDS011;48480;50.252;18.848;2022-09-30T01:47:45;16.90;;;11.60;;
62435;SDS011;48480;50.252;18.848;2022-09-30T01:54:29;18.40;;;12.30;;
62435;SDS011;48480;50.252;18.848;2022-09-30T01:57:17;16.40;;;11.00;;
62435;SDS011;48480;50.252;18.848;2022-09-30T02:00:10;16.00;;;11.80;;
62435;SDS011;48480;50.252;18.848;2022-09-30T02:02:58;18.10;;;12.30;;
62435;SDS011;48480;50.252;18.848;2022-09-30T02:05:54;19.50;;;11.80;;
62435;SDS011;48480;50.252;18.848;2022-09-30T02:09:04;24.60;;;14.30;;
62435;SDS011;48480;50.252;18.848;2022-09-30T02:12:06;23.30;;;13.90;;
62435;SDS011;48480;50.252;18.848;2022-09-30T02:15:00;19.40;;;13.40;;
62435;SDS011;48480;50.252;18.848;2022-09-30T02:17:51;17.90;;;12.20;;
62435;SDS011;48480;50.252;18.848;2022-09-30T02:20:41;16.60;;;11.80;;
62435;SDS011;48480;50.252;18.848;2022-09-30T02:23:30;17.80;;;11.50;;
62435;SDS011;48480;50.252;18.848;2022-09-30T02:26:22;19.70;;;11.90;;
62435;SDS011;48480;50.252;18.848;2022-09-30T02:29:11;17.80;;;12.60;;
62435;SDS011;48480;50.252;18.848;2022-09-30T02:32:01;20.70;;;12.80;;
62435;SDS011;48480;50.252;18.848;2022-09-30T02:34:55;20.40;;;12.10;;
62435;SDS011;48480;50.252;18.848;2022-09-30T02:37:48;19.50;;;13.10;;
62435;SDS011;48480;50.252;18.848;2022-09-30T02:40:37;20.80;;;13.70;;
62435;SDS011;48480;50.252;18.848;2022-09-30T02:43:31;20.30;;;13.70;;
62435;SDS011;48480;50.252;18.848;2022-09-30T02:52:25;17.90;;;13.50;;
62435;SDS011;48480;50.252;18.848;2022-09-30T02:56:04;20.60;;;12.30;;
62435;SDS011;48480;50.252;18.848;2022-09-30T02:59:06;17.30;;;13.10;;
62435;SDS011;48480;50.252;18.848;2022-09-30T03:01:51;16.40;;;12.40;;
62435;SDS011;48480;50.252;18.848;2022-09-30T03:04:36;20.00;;;13.30;;
62435;SDS011;48480;50.252;18.848;2022-09-30T03:07:24;17.70;;;13.00;;
62435;SDS011;48480;50.252;18.848;2022-09-30T03:10:13;20.50;;;13.10;;
62435;SDS011;48480;50.252;18.848;2022-09-30T03:19:18;15.70;;;12.60;;
62435;SDS011;48480;50.252;18.848;2022-09-30T03:28:31;17.40;;;12.10;;
62435;SDS011;48480;50.252;18.848;2022-09-30T03:34:58;20.40;;;14.60;;
62435;SDS011;48480;50.252;18.848;2022-09-30T03:37:59;17.80;;;12.90;;
62435;SDS011;48480;50.252;18.848;2022-09-30T03:44:15;18.70;;;12.80;;
62435;SDS011;48480;50.252;18.848;2022-09-30T03:47:23;17.20;;;12.50;;
62435;SDS011;48480;50.252;18.848;2022-09-30T03:50:10;17.30;;;12.20;;
62435;SDS011;48480;50.252;18.848;2022-09-30T03:52:59;19.10;;;13.20;;
62435;SDS011;48480;50.252;18.848;2022-09-30T03:55:45;19.50;;;14.00;;
62435;SDS011;48480;50.252;18.848;2022-09-30T03:58:30;18.70;;;14.60;;
62435;SDS011;48480;50.252;18.848;2022-09-30T04:01:18;22.20;;;13.30;;
62435;SDS011;48480;50.252;18.848;2022-09-30T04:03:52;19.80;;;13.90;;
62435;SDS011;48480;50.252;18.848;2022-09-30T04:06:22;20.10;;;12.90;;
62435;SDS011;48480;50.252;18.848;2022-09-30T04:08:53;18.00;;;13.20;;
62435;SDS011;48480;50.252;18.848;2022-09-30T04:11:23;18.90;;;12.40;;
62435;SDS011;48480;50.252;18.848;2022-09-30T04:13:59;18.30;;;12.20;;
62435;SDS011;48480;50.252;18.848;2022-09-30T04:16:50;18.20;;;11.70;;
62435;SDS011;48480;50.252;18.848;2022-09-30T04:19:22;17.40;;;10.50;;
62435;SDS011;48480;50.252;18.848;2022-09-30T04:22:11;20.00;;;12.50;;
62435;SDS011;48480;50.252;18.848;2022-09-30T04:24:52;20.70;;;13.00;;
62435;SDS011;48480;50.252;18.848;2022-09-30T04:27:24;17.70;;;11.20;;
62435;SDS011;48480;50.252;18.848;2022-09-30T04:30:11;16.70;;;11.90;;
62435;SDS011;48480;50.252;18.848;2022-09-30T04:36:58;21.10;;;12.00;;
62435;SDS011;48480;50.252;18.848;2022-09-30T04:39:53;18.20;;;11.90;;
62435;SDS011;48480;50.252;18.848;2022-09-30T04:42:25;16.60;;;11.20;;
62435;SDS011;48480;50.252;18.848;2022-09-30T04:45:03;15.70;;;11.40;;
62435;SDS011;48480;50.252;18.848;2022-09-30T04:50:35;16.20;;;10.90;;
62435;SDS011;48480;50.252;18.848;2022-09-30T04:53:21;14.20;;;10.90;;
62435;SDS011;48480;50.252;18.848;2022-09-30T04:56:00;17.40;;;11.30;;
62435;SDS011;48480;50.252;18.848;2022-09-30T04:58:31;15.80;;;10.90;;
62435;SDS011;48480;50.252;18.848;2022-09-30T05:01:03;14.80;;;11.20;;
62435;SDS011;48480;50.252;18.848;2022-09-30T05:03:38;16.80;;;11.70;;
62435;SDS011;48480;50.252;18.848;2022-09-30T05:06:21;14.00;;;9.80;;
62435;SDS011;48480;50.252;18.848;2022-09-30T05:16:48;16.30;;;11.50;;
62435;SDS011;48480;50.252;18.848;2022-09-30T05:19:20;15.40;;;11.60;;
62435;SDS011;48480;50.252;18.848;2022-09-30T05:21:52;14.20;;;10.40;;
62435;SDS011;48480;50.252;18.848;2022-09-30T05:24:26;15.10;;;11.00;;
62435;SDS011;48480;50.252;18.848;2022-09-30T05:26:59;16.90;;;12.10;;
62435;SDS011;48480;50.252;18.848;2022-09-30T05:29:33;16.40;;;11.10;;
62435;SDS011;48480;50.252;18.848;2022-09-30T05:36:00;16.80;;;12.00;;
62435;SDS011;48480;50.252;18.848;2022-09-30T05:38:41;20.10;;;12.50;;
62435;SDS011;48480;50.252;18.848;2022-09-30T05:41:11;18.80;;;13.20;;
62435;SDS011;48480;50.252;18.848;2022-09-30T05:43:43;19.60;;;13.20;;
62435;SDS011;48480;50.252;18.848;2022-09-30T05:46:16;18.10;;;14.00;;
62435;SDS011;48480;50.252;18.848;2022-09-30T05:48:47;15.20;;;11.30;;
62435;SDS011;48480;50.252;18.848;2022-09-30T05:51:29;18.30;;;12.50;;
62435;SDS011;48480;50.252;18.848;2022-09-30T05:54:04;18.50;;;13.60;;
62435;SDS011;48480;50.252;18.848;2022-09-30T05:59:11;18.50;;;13.00;;
62435;SDS011;48480;50.252;18.848;2022-09-30T06:01:42;19.00;;;13.10;;
62435;SDS011;48480;50.252;18.848;2022-09-30T06:04:22;18.30;;;13.10;;
62435;SDS011;48480;50.252;18.848;2022-09-30T06:07:04;16.40;;;12.90;;
62435;SDS011;48480;50.252;18.848;2022-09-30T06:09:42;19.60;;;13.00;;
62435;SDS011;48480;50.252;18.848;2022-09-30T06:12:14;17.10;;;12.80;;
62435;SDS011;48480;50.252;18.848;2022-09-30T06:14:58;17.90;;;12.80;;
62435;SDS011;48480;50.252;18.848;2022-09-30T06:17:27;21.50;;;12.60;;
62435;SDS011;48480;50.252;18.848;2022-09-30T06:20:05;19.10;;;14.60;;
62435;SDS011;48480;50.252;18.848;2022-09-30T06:22:53;22.70;;;15.90;;
62435;SDS011;48480;50.252;18.848;2022-09-30T06:25:30;22.70;;;15.30;;
62435;SDS011;48480;50.252;18.848;2022-09-30T06:28:11;22.30;;;16.80;;
62435;SDS011;48480;50.252;18.848;2022-09-30T06:30:44;23.10;;;15.60;;
62435;SDS011;48480;50.252;18.848;2022-09-30T06:33:15;21.40;;;15.80;;
62435;SDS011;48480;50.252;18.848;2022-09-30T06:35:46;22.30;;;15.30;;
62435;SDS011;48480;50.252;18.848;2022-09-30T06:40:53;20.00;;;13.60;;
62435;SDS011;48480;50.252;18.848;2022-09-30T06:43:24;16.80;;;13.40;;
62435;SDS011;48480;50.252;18.848;2022-09-30T06:45:55;20.60;;;13.80;;
62435;SDS011;48480;50.252;18.848;2022-09-30T06:48:25;19.40;;;14.00;;
62435;SDS011;48480;50.252;18.848;2022-09-30T06:51:07;21.20;;;15.60;;
62435;SDS011;48480;50.252;18.848;2022-09-30T06:53:40;19.00;;;14.00;;
62435;SDS011;48480;50.252;18.848;2022-09-30T06:56:12;18.30;;;14.20;;
62435;SDS011;48480;50.252;18.848;2022-09-30T06:58:54;21.40;;;14.10;;
62435;SDS011;48480;50.252;18.848;2022-09-30T07:01:28;23.70;;;14.60;;
62435;SDS011;48480;50.252;18.848;2022-09-30T07:03:58;22.60;;;15.90;;
62435;SDS011;48480;50.252;18.848;2022-09-30T07:06:47;21.60;;;14.90;;
62435;SDS011;48480;50.252;18.848;2022-09-30T07:09:18;30.20;;;18.90;;
62435;SDS011;48480;50.252;18.848;2022-09-30T07:11:49;29.80;;;19.60;;
62435;SDS011;48480;50.252;18.848;2022-09-30T07:14:19;20.60;;;15.50;;
62435;SDS011;48480;50.252;18.848;2022-09-30T07:16:57;19.30;;;14.30;;
62435;SDS011;48480;50.252;18.848;2022-09-30T07:19:28;19.50;;;14.40;;
62435;SDS011;48480;50.252;18.848;2022-09-30T07:21:57;19.10;;;14.40;;
62435;SDS011;48480;50.252;18.848;2022-09-30T07:24:49;19.40;;;15.40;;
62435;SDS011;48480;50.252;18.848;2022-09-30T07:27:19;24.20;;;17.20;;
62435;SDS011;48480;50.252;18.848;2022-09-30T07:29:50;24.20;;;17.00;;
62435;SDS011;48480;50.252;18.848;2022-09-30T07:32:24;19.50;;;12.50;;
62435;SDS011;48480;50.252;18.848;2022-09-30T07:34:56;19.80;;;13.00;;
62435;SDS011;48480;50.252;18.848;2022-09-30T07:37:26;16.60;;;13.40;;
62435;SDS011;48480;50.252;18.848;2022-09-30T07:39:55;17.90;;;14.00;;
62435;SDS011;48480;50.252;18.848;2022-09-30T07:42:25;17.30;;;11.30;;
62435;SDS011;48480;50.252;18.848;2022-09-30T07:44:55;20.80;;;15.20;;
62435;SDS011;48480;50.252;18.848;2022-09-30T07:47:30;25.40;;;15.50;;
62435;SDS011;48480;50.252;18.848;2022-09-30T07:50:00;20.00;;;15.00;;
62435;SDS011;48480;50.252;18.848;2022-09-30T07:52:30;19.60;;;14.90;;
62435;SDS011;48480;50.252;18.848;2022-09-30T07:54:57;16.50;;;13.50;;
62435;SDS011;48480;50.252;18.848;2022-09-30T07:57:27;14.10;;;11.70;;
62435;SDS011;48480;50.252;18.848;2022-09-30T07:59:57;15.30;;;11.10;;
62435;SDS011;48480;50.252;18.848;2022-09-30T08:02:26;16.00;;;11.30;;
62435;SDS011;48480;50.252;18.848;2022-09-30T08:04:57;14.40;;;10.60;;
62435;SDS011;48480;50.252;18.848;2022-09-30T08:07:27;12.90;;;9.60;;
62435;SDS011;48480;50.252;18.848;2022-09-30T08:09:58;12.80;;;10.60;;
62435;SDS011;48480;50.252;18.848;2022-09-30T08:12:28;12.10;;;9.90;;
62435;SDS011;48480;50.252;18.848;2022-09-30T08:14:58;12.30;;;9.50;;
62435;SDS011;48480;50.252;18.848;2022-09-30T08:17:29;10.30;;;7.60;;
62435;SDS011;48480;50.252;18.848;2022-09-30T08:20:02;11.40;;;8.40;;
62435;SDS011;48480;50.252;18.848;2022-09-30T08:25:02;11.60;;;8.60;;
62435;SDS011;48480;50.252;18.848;2022-09-30T08:27:32;15.20;;;10.50;;
62435;SDS011;48480;50.252;18.848;2022-09-30T08:30:01;14.00;;;9.30;;
62435;SDS011;48480;50.252;18.848;2022-09-30T08:32:32;14.10;;;10.00;;
62435;SDS011;48480;50.252;18.848;2022-09-30T08:35:02;12.00;;;9.10;;
62435;SDS011;48480;50.252;18.848;2022-09-30T08:37:33;12.70;;;10.10;;
62435;SDS011;48480;50.252;18.848;2022-09-30T08:40:03;14.20;;;10.10;;
62435;SDS011;48480;50.252;18.848;2022-09-30T08:45:21;11.80;;;9.30;;
62435;SDS011;48480;50.252;18.848;2022-09-30T08:53:44;19.30;;;12.70;;
62435;SDS011;48480;50.252;18.848;2022-09-30T08:56:19;22.50;;;15.20;;
62435;SDS011;48480;50.252;18.848;2022-09-30T09:05:05;19.70;;;12.50;;
62435;SDS011;48480;50.252;18.848;2022-09-30T09:07:43;14.40;;;10.50;;
62435;SDS011;48480;50.252;18.848;2022-09-30T09:10:44;14.20;;;10.90;;
62435;SDS011;48480;50.252;18.848;2022-09-30T09:16:31;15.00;;;12.60;;
62435;SDS011;48480;50.252;18.848;2022-09-30T09:19:13;14.90;;;11.80;;
62435;SDS011;48480;50.252;18.848;2022-09-30T09:21:58;20.00;;;14.60;;
62435;SDS011;48480;50.252;18.848;2022-09-30T09:24:35;16.20;;;12.60;;
62435;SDS011;48480;50.252;18.848;2022-09-30T09:30:08;20.90;;;14.90;;
62435;SDS011;48480;50.252;18.848;2022-09-30T09:32:44;21.10;;;15.80;;
62435;SDS011;48480;50.252;18.848;2022-09-30T09:35:43;16.40;;;13.00;;
62435;SDS011;48480;50.252;18.848;2022-09-30T09:41:28;19.40;;;14.00;;
62435;SDS011;48480;50.252;18.848;2022-09-30T09:47:07;18.60;;;12.00;;
62435;SDS011;48480;50.252;18.848;2022-09-30T09:49:45;18.40;;;13.50;;
62435;SDS011;48480;50.252;18.848;2022-09-30T09:52:25;16.60;;;12.20;;
62435;SDS011;48480;50.252;18.848;2022-09-30T09:55:03;17.60;;;13.80;;
62435;SDS011;48480;50.252;18.848;2022-09-30T09:57:33;18.10;;;12.90;;
62435;SDS011;48480;50.252;18.848;2022-09-30T10:00:04;18.10;;;13.30;;
62435;SDS011;48480;50.252;18.848;2022-09-30T10:03:03;20.30;;;13.60;;
62435;SDS011;48480;50.252;18.848;2022-09-30T10:05:36;17.60;;;13.20;;
62435;SDS011;48480;50.252;18.848;2022-09-30T10:08:17;14.90;;;11.10;;
62435;SDS011;48480;50.252;18.848;2022-09-30T10:13:23;14.10;;;10.70;;
62435;SDS011;48480;50.252;18.848;2022-09-30T10:15:55;17.00;;;12.70;;
62435;SDS011;48480;50.252;18.848;2022-09-30T10:18:31;20.20;;;13.40;;
62435;SDS011;48480;50.252;18.848;2022-09-30T10:21:06;17.70;;;13.00;;
62435;SDS011;48480;50.252;18.848;2022-09-30T10:23:49;23.10;;;18.30;;
62435;SDS011;48480;50.252;18.848;2022-09-30T10:26:22;24.70;;;18.30;;
62435;SDS011;48480;50.252;18.848;2022-09-30T10:29:02;23.80;;;17.70;;
62435;SDS011;48480;50.252;18.848;2022-09-30T10:31:36;23.30;;;18.20;;
62435;SDS011;48480;50.252;18.848;2022-09-30T10:34:17;26.90;;;19.20;;
62435;SDS011;48480;50.252;18.848;2022-09-30T10:36:55;25.10;;;17.60;;
62435;SDS011;48480;50.252;18.848;2022-09-30T10:39:31;23.60;;;18.00;;
62435;SDS011;48480;50.252;18.848;2022-09-30T10:42:21;20.80;;;17.60;;
62435;SDS011;48480;50.252;18.848;2022-09-30T10:45:17;22.40;;;17.90;;
62435;SDS011;48480;50.252;18.848;2022-09-30T10:47:52;23.20;;;18.60;;
62435;SDS011;48480;50.252;18.848;2022-09-30T10:50:24;23.30;;;18.80;;
62435;SDS011;48480;50.252;18.848;2022-09-30T10:52:57;26.00;;;20.30;;
62435;SDS011;48480;50.252;18.848;2022-09-30T10:55:41;24.20;;;19.70;;
62435;SDS011;48480;50.252;18.848;2022-09-30T10:58:27;21.70;;;16.60;;
62435;SDS011;48480;50.252;18.848;2022-09-30T11:07:00;13.90;;;11.50;;
62435;SDS011;48480;50.252;18.848;2022-09-30T11:09:43;18.30;;;13.30;;
62435;SDS011;48480;50.252;18.848;2022-09-30T11:12:47;15.30;;;12.60;;
62435;SDS011;48480;50.252;18.848;2022-09-30T11:15:46;15.10;;;11.50;;
62435;SDS011;48480;50.252;18.848;2022-09-30T11:18:44;15.10;;;12.00;;
62435;SDS011;48480;50.252;18.848;2022-09-30T11:24:23;15.80;;;11.80;;
62435;SDS011;48480;50.252;18.848;2022-09-30T11:54:44;18.40;;;13.40;;
62435;SDS011;48480;50.252;18.848;2022-09-30T11:57:52;14.60;;;10.70;;
62435;SDS011;48480;50.252;18.848;2022-09-30T12:00:30;15.50;;;12.30;;
62435;SDS011;48480;50.252;18.848;2022-09-30T12:03:23;14.60;;;12.00;;
62435;SDS011;48480;50.252;18.848;2022-09-30T12:05:57;14.40;;;11.80;;
62435;SDS011;48480;50.252;18.848;2022-09-30T12:08:51;15.60;;;12.00;;
62435;SDS011;48480;50.252;18.848;2022-09-30T12:17:31;16.10;;;13.30;;
62435;SDS011;48480;50.252;18.848;2022-09-30T12:20:07;18.90;;;14.50;;
62435;SDS011;48480;50.252;18.848;2022-09-30T12:22:40;21.00;;;15.40;;
62435;SDS011;48480;50.252;18.848;2022-09-30T12:25:14;21.70;;;16.20;;
62435;SDS011;48480;50.252;18.848;2022-09-30T12:27:55;22.90;;;17.60;;
62435;SDS011;48480;50.252;18.848;2022-09-30T12:31:07;22.30;;;17.40;;
62435;SDS011;48480;50.252;18.848;2022-09-30T12:36:21;18.40;;;13.10;;
62435;SDS011;48480;50.252;18.848;2022-09-30T12:39:09;15.50;;;13.30;;
62435;SDS011;48480;50.252;18.848;2022-09-30T12:42:11;15.70;;;12.50;;
62435;SDS011;48480;50.252;18.848;2022-09-30T12:48:06;18.20;;;14.00;;
62435;SDS011;48480;50.252;18.848;2022-09-30T12:50:48;19.40;;;15.10;;
62435;SDS011;48480;50.252;18.848;2022-09-30T12:53:24;18.20;;;13.80;;
62435;SDS011;48480;50.252;18.848;2022-09-30T12:56:15;17.50;;;14.10;;
62435;SDS011;48480;50.252;18.848;2022-09-30T12:58:47;16.20;;;13.10;;
62435;SDS011;48480;50.252;18.848;2022-09-30T13:01:23;18.00;;;13.70;;
62435;SDS011;48480;50.252;18.848;2022-09-30T13:14:34;17.40;;;14.00;;
62435;SDS011;48480;50.252;18.848;2022-09-30T13:19:46;27.00;;;17.60;;
62435;SDS011;48480;50.252;18.848;2022-09-30T13:35:35;23.10;;;19.70;;
62435;SDS011;48480;50.252;18.848;2022-09-30T13:40:57;31.70;;;26.70;;
62435;SDS011;48480;50.252;18.848;2022-09-30T13:49:14;27.60;;;19.40;;
62435;SDS011;48480;50.252;18.848;2022-09-30T13:51:49;30.40;;;24.50;;
62435;SDS011;48480;50.252;18.848;2022-09-30T13:54:28;26.60;;;21.10;;
62435;SDS011;48480;50.252;18.848;2022-09-30T13:57:02;47.00;;;33.90;;
62435;SDS011;48480;50.252;18.848;2022-09-30T14:08:07;30.10;;;23.30;;
62435;SDS011;48480;50.252;18.848;2022-09-30T14:16:55;22.20;;;16.40;;
62435;SDS011;48480;50.252;18.848;2022-09-30T14:22:54;23.30;;;19.40;;
62435;SDS011;48480;50.252;18.848;2022-09-30T14:25:24;28.80;;;24.70;;
62435;SDS011;48480;50.252;18.848;2022-09-30T14:28:05;20.40;;;15.30;;
62435;SDS011;48480;50.252;18.848;2022-09-30T14:30:42;21.50;;;17.50;;
62435;SDS011;48480;50.252;18.848;2022-09-30T14:33:34;27.20;;;24.20;;
62435;SDS011;48480;50.252;18.848;2022-09-30T14:36:04;23.80;;;19.20;;
62435;SDS011;48480;50.252;18.848;2022-09-30T14:38:41;22.20;;;19.90;;
62435;SDS011;48480;50.252;18.848;2022-09-30T14:41:16;19.10;;;17.00;;
62435;SDS011;48480;50.252;18.848;2022-09-30T14:43:51;25.50;;;20.10;;
62435;SDS011;48480;50.252;18.848;2022-09-30T14:46:35;19.50;;;16.30;;
62435;SDS011;48480;50.252;18.848;2022-09-30T14:49:12;21.40;;;16.20;;
62435;SDS011;48480;50.252;18.848;2022-09-30T14:51:56;18.60;;;14.60;;
62435;SDS011;48480;50.252;18.848;2022-09-30T14:54:35;19.70;;;14.20;;
62435;SDS011;48480;50.252;18.848;2022-09-30T14:57:15;12.30;;;10.60;;
62435;SDS011;48480;50.252;18.848;2022-09-30T15:02:19;20.70;;;15.20;;
62435;SDS011;48480;50.252;18.848;2022-09-30T15:04:52;26.00;;;20.70;;
62435;SDS011;48480;50.252;18.848;2022-09-30T15:07:24;26.00;;;21.40;;
62435;SDS011;48480;50.252;18.848;2022-09-30T15:09:54;27.80;;;23.50;;
62435;SDS011;48480;50.252;18.848;2022-09-30T15:12:30;29.30;;;23.50;;
62435;SDS011;48480;50.252;18.848;2022-09-30T15:20:54;27.80;;;20.20;;
62435;SDS011;48480;50.252;18.848;2022-09-30T15:23:31;23.60;;;17.00;;
62435;SDS011;48480;50.252;18.848;2022-09-30T15:26:03;19.20;;;16.30;;
62435;SDS011;48480;50.252;18.848;2022-09-30T15:28:33;22.90;;;17.50;;
62435;SDS011;48480;50.252;18.848;2022-09-30T15:31:05;23.00;;;18.50;;
62435;SDS011;48480;50.252;18.848;2022-09-30T15:33:45;20.30;;;15.30;;
62435;SDS011;48480;50.252;18.848;2022-09-30T15:36:16;21.60;;;16.80;;
62435;SDS011;48480;50.252;18.848;2022-09-30T15:38:48;26.70;;;18.50;;
62435;SDS011;48480;50.252;18.848;2022-09-30T15:41:28;22.30;;;16.60;;
62435;SDS011;48480;50.252;18.848;2022-09-30T15:43:58;23.80;;;17.80;;
62435;SDS011;48480;50.252;18.848;2022-09-30T15:46:31;21.00;;;17.70;;
62435;SDS011;48480;50.252;18.848;2022-09-30T15:49:04;26.80;;;21.80;;
62435;SDS011;48480;50.252;18.848;2022-09-30T15:51:55;20.70;;;16.70;;
62435;SDS011;48480;50.252;18.848;2022-09-30T15:55:33;27.70;;;22.00;;
62435;SDS011;48480;50.252;18.848;2022-09-30T16:06:35;26.20;;;19.60;;
62435;SDS011;48480;50.252;18.848;2022-09-30T16:14:47;26.80;;;20.40;;
62435;SDS011;48480;50.252;18.848;2022-09-30T16:17:23;34.40;;;22.40;;
62435;SDS011;48480;50.252;18.848;2022-09-30T16:19:59;29.30;;;19.80;;
62435;SDS011;48480;50.252;18.848;2022-09-30T16:28:12;37.30;;;27.90;;
62435;SDS011;48480;50.252;18.848;2022-09-30T16:30:47;39.60;;;25.30;;
62435;SDS011;48480;50.252;18.848;2022-09-30T16:33:17;29.50;;;21.00;;
62435;SDS011;48480;50.252;18.848;2022-09-30T16:35:46;51.60;;;34.10;;
62435;SDS011;48480;50.252;18.848;2022-09-30T16:38:24;55.90;;;35.70;;
62435;SDS011;48480;50.252;18.848;2022-09-30T16:40:53;36.50;;;27.30;;
62435;SDS011;48480;50.252;18.848;2022-09-30T16:43:23;35.60;;;26.10;;
62435;SDS011;48480;50.252;18.848;2022-09-30T16:48:25;31.10;;;21.50;;
62435;SDS011;48480;50.252;18.848;2022-09-30T16:51:04;51.60;;;36.50;;
62435;SDS011;48480;50.252;18.848;2022-09-30T16:53:36;40.10;;;29.50;;
62435;SDS011;48480;50.252;18.848;2022-09-30T16:56:13;28.40;;;19.30;;
62435;SDS011;48480;50.252;18.848;2022-09-30T16:58:45;27.70;;;20.80;;
62435;SDS011;48480;50.252;18.848;2022-09-30T17:01:20;34.90;;;24.10;;
62435;SDS011;48480;50.252;18.848;2022-09-30T17:03:51;35.10;;;23.90;;
62435;SDS011;48480;50.252;18.848;2022-09-30T17:06:27;35.30;;;24.20;;
62435;SDS011;48480;50.252;18.848;2022-09-30T17:08:58;36.90;;;26.50;;
62435;SDS011;48480;50.252;18.848;2022-09-30T17:11:31;38.60;;;26.00;;
62435;SDS011;48480;50.252;18.848;2022-09-30T17:14:03;32.20;;;23.30;;
62435;SDS011;48480;50.252;18.848;2022-09-30T17:16:34;38.10;;;26.20;;
62435;SDS011;48480;50.252;18.848;2022-09-30T17:19:04;40.10;;;27.10;;
62435;SDS011;48480;50.252;18.848;2022-09-30T17:21:34;43.80;;;29.50;;
62435;SDS011;48480;50.252;18.848;2022-09-30T17:24:04;49.80;;;35.00;;
62435;SDS011;48480;50.252;18.848;2022-09-30T17:26:36;37.50;;;26.70;;
62435;SDS011;48480;50.252;18.848;2022-09-30T17:29:08;33.20;;;22.70;;
62435;SDS011;48480;50.252;18.848;2022-09-30T17:31:38;35.00;;;22.50;;
62435;SDS011;48480;50.252;18.848;2022-09-30T17:34:08;30.40;;;20.00;;
62435;SDS011;48480;50.252;18.848;2022-09-30T17:36:38;27.80;;;19.60;;
62435;SDS011;48480;50.252;18.848;2022-09-30T17:39:08;30.10;;;20.40;;
62435;SDS011;48480;50.252;18.848;2022-09-30T17:44:28;28.50;;;18.10;;
62435;SDS011;48480;50.252;18.848;2022-09-30T17:46:59;27.20;;;19.00;;
62435;SDS011;48480;50.252;18.848;2022-09-30T17:49:35;30.10;;;18.90;;
62435;SDS011;48480;50.252;18.848;2022-09-30T17:52:15;35.70;;;20.00;;
62435;SDS011;48480;50.252;18.848;2022-09-30T17:54:49;31.70;;;20.30;;
62435;SDS011;48480;50.252;18.848;2022-09-30T17:57:20;31.00;;;19.40;;
62435;SDS011;48480;50.252;18.848;2022-09-30T17:59:50;30.00;;;19.00;;
62435;SDS011;48480;50.252;18.848;2022-09-30T18:02:22;30.90;;;19.70;;
62435;SDS011;48480;50.252;18.848;2022-09-30T18:05:02;30.10;;;19.60;;
62435;SDS011;48480;50.252;18.848;2022-09-30T18:07:32;31.80;;;19.40;;
62435;SDS011;48480;50.252;18.848;2022-09-30T18:10:02;31.50;;;19.10;;
62435;SDS011;48480;50.252;18.848;2022-09-30T18:12:34;33.20;;;19.40;;
62435;SDS011;48480;50.252;18.848;2022-09-30T18:15:05;36.90;;;20.40;;
62435;SDS011;48480;50.252;18.848;2022-09-30T18:17:37;34.30;;;18.30;;
62435;SDS011;48480;50.252;18.848;2022-09-30T18:20:08;33.70;;;19.00;;
62435;SDS011;48480;50.252;18.848;2022-09-30T18:22:39;28.10;;;18.40;;
62435;SDS011;48480;50.252;18.848;2022-09-30T18:25:11;38.60;;;20.70;;
62435;SDS011;48480;50.252;18.848;2022-09-30T18:28:04;33.30;;;19.60;;
62435;SDS011;48480;50.252;18.848;2022-09-30T18:30:38;37.40;;;21.40;;
62435;SDS011;48480;50.252;18.848;2022-09-30T18:33:09;39.70;;;23.80;;
62435;SDS011;48480;50.252;18.848;2022-09-30T18:35:39;40.20;;;26.20;;
62435;SDS011;48480;50.252;18.848;2022-09-30T18:38:11;45.10;;;25.10;;
62435;SDS011;48480;50.252;18.848;2022-09-30T18:40:48;39.50;;;25.10;;
62435;SDS011;48480;50.252;18.848;2022-09-30T18:43:21;46.50;;;25.90;;
62435;SDS011;48480;50.252;18.848;2022-09-30T18:45:53;54.20;;;30.50;;
62435;SDS011;48480;50.252;18.848;2022-09-30T18:48:27;53.70;;;31.60;;
62435;SDS011;48480;50.252;18.848;2022-09-30T18:51:08;54.40;;;30.10;;
62435;SDS011;48480;50.252;18.848;2022-09-30T18:53:38;55.20;;;30.30;;
62435;SDS011;48480;50.252;18.848;2022-09-30T18:56:11;60.60;;;32.00;;
62435;SDS011;48480;50.252;18.848;2022-09-30T18:58:41;55.10;;;31.90;;
62435;SDS011;48480;50.252;18.848;2022-09-30T19:01:11;65.50;;;31.80;;
62435;SDS011;48480;50.252;18.848;2022-09-30T19:03:41;62.90;;;33.40;;
62435;SDS011;48480;50.252;18.848;2022-09-30T19:06:13;52.30;;;30.30;;
62435;SDS011;48480;50.252;18.848;2022-09-30T19:08:44;55.30;;;29.20;;
62435;SDS011;48480;50.252;18.848;2022-09-30T19:11:14;54.80;;;28.30;;
62435;SDS011;48480;50.252;18.848;2022-09-30T19:13:46;63.00;;;31.30;;
62435;SDS011;48480;50.252;18.848;2022-09-30T19:16:20;54.00;;;27.10;;